Fairchem Aldebaran — D5MP6 — position and weather

sailwx.info

Track history (hours):
 
Tides and Currents Weather Stations Pressure Air Temp Water Temp Dewpoint Dewpoint Depression Visibility Wind Speed Wind Dir Waves Ship Positions

Fairchem Aldebaran

Last reported at 2017-Dec-09 00:33 UTC. Time now 2017-Dec-13 13:12 UTC.
Position N 34°37' E 139°26'.

Length 146 m; draft 7.9 m.

Type: Tanker. MMSI: 636017765.

Date/timePositionNaut miles runAvg speedWind from/ knotsBaromVisibWave heightAir tempDewpointWater temp
2017-Dec-09 00:33N 34°37' E 139°26'215.3
2017-Dec-09 00:24N 34°37' E 139°24'615.1
2017-Dec-09 00:00N 34°35' E 139°17'714.7
2017-Dec-08 23:30N 34°33' E 139°08'815.1
2017-Dec-08 23:00N 34°30' E 138°59'1115.1
2017-Dec-08 22:14N 34°26' E 138°46'315.0
2017-Dec-08 22:00N 34°25' E 138°42'815.0
2017-Dec-08 21:30N 34°22' E 138°34'814.7
2017-Dec-08 20:59N 34°19' E 138°25'1114.5
2017-Dec-08 20:14N 34°15' E 138°13'414.2
2017-Dec-08 19:59N 34°14' E 138°09'  
2017-Dec-02 18:24N 23°38' E 119°54'1 1.5
2017-Dec-02 17:57N 23°37' E 119°54'0 0.9
2017-Dec-02 17:30N 23°37' E 119°54'0 0.7
2017-Dec-02 16:58N 23°37' E 119°54'1 2.5
2017-Dec-02 16:30N 23°36' E 119°53'2 5.0
2017-Dec-02 16:00N 23°38' E 119°54'5 8.4
2017-Dec-02 15:28N 23°43' E 119°55'5 1.2
2017-Dec-02 11:05N 23°48' E 119°53'210.3
2017-Dec-02 10:56N 23°49' E 119°52'  
Track history (hours):
 
Tides and Currents Weather Stations Pressure Air Temp Water Temp Dewpoint Dewpoint Depression Visibility Wind Speed Wind Dir Waves Ship Positions

Fairchem Aldebaran

Last reported at 2017-Dec-09 00:33 UTC. Time now 2017-Dec-13 13:12 UTC.
Position N 34°37' E 139°26'.

Length 146 m; draft 7.9 m.

Type: Tanker. MMSI: 636017765.

Date/timePositionNaut miles runAvg speedWind from/ knotsBaromVisibWave heightAir tempDewpointWater temp
2017-Dec-09 00:33N 34°37' E 139°26'215.3
2017-Dec-09 00:24N 34°37' E 139°24'615.1
2017-Dec-09 00:00N 34°35' E 139°17'714.7
2017-Dec-08 23:30N 34°33' E 139°08'815.1
2017-Dec-08 23:00N 34°30' E 138°59'1115.1
2017-Dec-08 22:14N 34°26' E 138°46'315.0
2017-Dec-08 22:00N 34°25' E 138°42'815.0
2017-Dec-08 21:30N 34°22' E 138°34'814.7
2017-Dec-08 20:59N 34°19' E 138°25'1114.5
2017-Dec-08 20:14N 34°15' E 138°13'414.2
2017-Dec-08 19:59N 34°14' E 138°09'  
2017-Dec-02 18:24N 23°38' E 119°54'1 1.5
2017-Dec-02 17:57N 23°37' E 119°54'0 0.9
2017-Dec-02 17:30N 23°37' E 119°54'0 0.7
2017-Dec-02 16:58N 23°37' E 119°54'1 2.5
2017-Dec-02 16:30N 23°36' E 119°53'2 5.0
2017-Dec-02 16:00N 23°38' E 119°54'5 8.4
2017-Dec-02 15:28N 23°43' E 119°55'5 1.2
2017-Dec-02 11:05N 23°48' E 119°53'210.3
2017-Dec-02 10:56N 23°49' E 119°52'  

Dump ship's entire track history